This is the latest recevied weather packets stored in our database for station/object W4CPD. If no packets are shown the sender has not sent any weather packets the latest 10 day(s).
| Time | Temp. | Humidity | Pressure | Rain* | Wind** | Luminosity | Snow |
|---|---|---|---|---|---|---|---|
| 1777568118 | 23.89° C | 84% | 1013.8 hPa | 0 mm | - | - | - |
| 1777567527 | 23.89° C | 86% | 1013.9 hPa | 0 mm | - | - | - |
| 1777565729 | 23.89° C | 83% | 1014.3 hPa | 0 mm | - | - | - |
| 1777564830 | 23.33° C | 84% | 1014.1 hPa | 0 mm | - | - | - |
| 1777564213 | 23.33° C | 85% | 1014.1 hPa | 0 mm | - | - | - |
| 1777562713 | 22.78° C | 86% | 1014.1 hPa | 0 mm | - | - | - |
| 1777558816 | 21.11° C | 91% | 1014.3 hPa | 0 mm | - | - | - |
| 1777558535 | 21.11° C | 92% | 1014.2 hPa | 0 mm | - | - | - |
| 1777553141 | 18.89° C | 98% | 1013.9 hPa | 0 mm | - | - | - |
| 1777551913 | 18.33° C | 98% | 1013.9 hPa | 0 mm | - | - | - |
| 1777551014 | 18.33° C | 98% | 1013.6 hPa | 0 mm | - | - | - |
| 1777550427 | 18.33° C | 98% | 1013 hPa | 0 mm | - | - | - |
| 1777549531 | 18.33° C | 98% | 1012.7 hPa | 0 mm | - | - | - |
| 1777549213 | 18.33° C | 98% | 1012.5 hPa | 0 mm | - | - | - |
| 1777548629 | 18.33° C | 98% | 1012.2 hPa | 0 mm | - | - | - |
| 1777547114 | 18.89° C | 98% | 1011.8 hPa | 0 mm | - | - | - |
| 1777545929 | 18.89° C | 98% | 1012 hPa | 0 mm | - | - | - |
| 1777543228 | 19.44° C | 98% | 1012.1 hPa | 0 mm | - | - | - |
| 1777541427 | 19.44° C | 98% | 1011.9 hPa | 0 mm | - | - | - |
| 1777541116 | 19.44° C | 98% | 1012 hPa | 0 mm | - | - | - |
| 1777539915 | 19.44° C | 98% | 1012 hPa | 0 mm | - | - | - |
| 1777539314 | 20° C | 99% | 1012.1 hPa | 0 mm | - | - | - |
| 1777539013 | 20° C | 99% | 1012 hPa | 0 mm | - | - | - |
| 1777536313 | 19.44° C | 99% | 1010.9 hPa | 0 mm | - | - | - |
| 1777534513 | 19.44° C | 98% | 1010.3 hPa | 0 mm | - | - | - |
* Rain latest hour (hover to see other rain measurements)
** Current wind speed in m/s (hover to see current wind gust speed)